createdAt,value
2017-10-19T00:01:55.805Z,93.99
2017-10-19T00:04:23.334Z,94.78
2017-10-19T00:06:58.375Z,94.92
2017-10-19T00:09:25.884Z,93.59
2017-10-19T00:11:53.403Z,92.88
2017-10-19T00:14:20.940Z,93.80
2017-10-19T00:16:48.453Z,94.79
2017-10-19T00:19:15.967Z,96.22
2017-10-19T00:21:43.483Z,97.21
2017-10-19T00:24:10.998Z,97.53
2017-10-19T00:26:38.503Z,96.55
2017-10-19T00:29:06.020Z,95.65
2017-10-19T00:31:33.552Z,95.68
2017-10-19T00:34:01.063Z,94.64
2017-10-19T00:36:28.580Z,95.33
2017-10-19T00:38:56.131Z,94.64
2017-10-19T00:41:23.664Z,95.55
2017-10-19T00:43:51.175Z,95.89
2017-10-19T00:46:18.709Z,95.60
2017-10-19T00:48:46.227Z,96.16
2017-10-19T00:51:14.657Z,96.26
2017-10-19T00:53:42.164Z,95.23
2017-10-19T00:56:09.675Z,95.40
2017-10-19T00:58:38.669Z,95.55
2017-10-19T01:01:06.170Z,96.25
2017-10-19T01:03:33.686Z,96.93
2017-10-19T01:06:01.236Z,97.44
2017-10-19T01:08:40.124Z,97.10
2017-10-19T01:11:07.651Z,97.67
2017-10-19T01:13:35.179Z,97.10
2017-10-19T01:16:02.692Z,95.95
2017-10-19T01:18:30.211Z,95.40
2017-10-19T01:20:57.844Z,95.78
2017-10-19T01:23:25.344Z,93.66
2017-10-19T01:25:52.843Z,93.47
2017-10-19T01:28:20.362Z,94.31
2017-10-19T01:30:47.883Z,94.48
2017-10-19T01:33:15.412Z,94.32
2017-10-19T01:35:42.934Z,94.17
2017-10-19T01:38:10.636Z,94.64
2017-10-19T01:40:38.147Z,94.95
2017-10-19T01:43:05.665Z,94.65
2017-10-19T01:45:33.190Z,95.99
2017-10-19T01:48:00.787Z,96.38
2017-10-19T01:50:36.837Z,95.47
2017-10-19T01:53:04.357Z,95.50
2017-10-19T01:55:32.404Z,95.59
2017-10-19T01:57:59.957Z,96.27
2017-10-19T02:00:30.410Z,96.13
2017-10-19T02:02:57.928Z,96.17
2017-10-19T02:05:26.587Z,94.47
2017-10-19T02:07:54.121Z,95.23
2017-10-19T02:10:21.627Z,95.05
2017-10-19T02:12:49.159Z,96.28
2017-10-19T02:15:16.688Z,96.83
2017-10-19T02:17:44.220Z,97.29
2017-10-19T02:20:11.722Z,96.42
2017-10-19T02:22:39.246Z,96.27
2017-10-19T02:25:07.392Z,95.50
2017-10-19T02:27:34.915Z,95.82
2017-10-19T02:30:02.468Z,95.71
2017-10-19T02:32:29.975Z,96.05
2017-10-19T02:34:57.482Z,97.22
2017-10-19T02:37:24.999Z,97.57
2017-10-19T02:39:52.504Z,97.60
2017-10-19T02:42:20.004Z,96.86
2017-10-19T02:44:47.524Z,95.92
2017-10-19T02:47:15.026Z,95.13
2017-10-19T02:49:42.530Z,95.45
2017-10-19T02:52:16.787Z,96.63
2017-10-19T02:54:44.315Z,96.66
2017-10-19T02:57:11.828Z,97.21
2017-10-19T02:59:39.331Z,97.49
2017-10-19T03:02:06.836Z,97.83
2017-10-19T03:04:34.360Z,97.05
2017-10-19T03:07:01.892Z,98.04
2017-10-19T03:09:29.416Z,97.79
2017-10-19T03:11:56.936Z,97.11
2017-10-19T03:14:32.098Z,97.53
2017-10-19T03:28:31.480Z,97.52
2017-10-19T03:30:59.024Z,97.28
2017-10-19T03:33:26.548Z,97.56
2017-10-19T03:35:54.066Z,97.30
2017-10-19T03:38:21.597Z,97.36
2017-10-19T03:40:49.118Z,97.42
2017-10-19T03:43:23.498Z,97.74
2017-10-19T03:45:51.011Z,97.97
2017-10-19T03:48:18.533Z,97.18
2017-10-19T03:50:46.069Z,96.05
2017-10-19T03:53:13.578Z,96.88
2017-10-19T03:55:41.099Z,97.68
2017-10-19T03:58:08.626Z,98.03
2017-10-19T04:00:36.375Z,98.43
2017-10-19T04:03:24.856Z,98.55
2017-10-19T04:05:52.383Z,98.58
2017-10-19T04:08:19.904Z,99.11
2017-10-19T04:10:47.414Z,99.36
2017-10-19T04:13:15.183Z,99.34
2017-10-19T04:15:42.715Z,99.45
2017-10-19T04:18:10.229Z,99.56
2017-10-19T04:20:47.686Z,99.24
2017-10-19T04:23:15.197Z,98.76
2017-10-19T04:25:42.707Z,98.37
2017-10-19T04:28:10.217Z,98.50
2017-10-19T04:30:37.746Z,98.73
2017-10-19T04:33:19.656Z,97.83
2017-10-19T04:35:48.766Z,97.01
2017-10-19T04:38:16.268Z,96.48
2017-10-19T04:40:43.797Z,97.50
2017-10-19T04:43:11.321Z,98.12
2017-10-19T04:45:38.836Z,97.25
2017-10-19T04:48:06.345Z,96.58
2017-10-19T04:50:33.850Z,96.68
2017-10-19T04:53:01.362Z,97.91
2017-10-19T04:55:28.888Z,96.94
2017-10-19T04:57:56.396Z,95.93
2017-10-19T05:00:23.912Z,95.38
2017-10-19T05:02:51.417Z,95.06
2017-10-19T05:05:18.955Z,95.34
2017-10-19T05:07:46.466Z,95.67
2017-10-19T05:10:13.971Z,97.00
2017-10-19T05:12:41.473Z,97.18
2017-10-19T05:28:15.881Z,99.20
2017-10-19T05:30:43.408Z,99.11
2017-10-19T05:33:10.952Z,98.61
2017-10-19T05:35:38.483Z,97.50
2017-10-19T05:38:06.010Z,96.37
2017-10-19T05:40:33.521Z,95.20
2017-10-19T05:43:01.072Z,96.20
2017-10-19T05:45:28.598Z,95.79
2017-10-19T05:47:56.115Z,95.34
2017-10-19T05:50:27.522Z,95.25
2017-10-19T05:53:05.807Z,94.36
2017-10-19T05:55:33.317Z,93.06
2017-10-19T05:58:00.832Z,95.46
2017-10-19T06:00:28.359Z,96.69
2017-10-19T06:02:55.917Z,96.86
2017-10-19T06:05:23.430Z,96.44
2017-10-19T06:07:50.940Z,96.46
2017-10-19T06:10:18.456Z,95.26
2017-10-19T06:12:46.011Z,94.66
2017-10-19T06:15:13.566Z,94.38
2017-10-19T06:17:41.079Z,94.43
2017-10-19T06:20:08.604Z,93.82
2017-10-19T06:22:36.121Z,93.58
2017-10-19T06:25:03.623Z,93.07
2017-10-19T06:27:31.143Z,93.00
2017-10-19T06:29:58.651Z,92.10
2017-10-19T06:32:26.164Z,92.53
2017-10-19T06:35:08.554Z,92.47
2017-10-19T06:37:36.074Z,91.71
2017-10-19T06:40:03.587Z,92.74
2017-10-19T06:42:31.229Z,93.00
2017-10-19T06:44:58.744Z,91.75
2017-10-19T06:47:26.313Z,91.14
2017-10-19T06:49:53.832Z,89.73
2017-10-19T06:52:21.345Z,88.87
2017-10-19T06:54:48.856Z,87.85
2017-10-19T06:57:16.389Z,88.51
2017-10-19T06:59:43.944Z,87.59
2017-10-19T07:02:11.602Z,87.52
2017-10-19T07:04:39.424Z,87.16
2017-10-19T07:07:07.146Z,86.32
2017-10-19T07:09:34.757Z,86.47
2017-10-19T07:12:02.987Z,86.03
2017-10-19T07:14:30.504Z,86.76
2017-10-19T07:16:58.033Z,86.06
2017-10-19T07:19:25.560Z,85.53
2017-10-19T07:21:53.069Z,85.28
2017-10-19T07:24:20.614Z,85.43
2017-10-19T07:26:48.139Z,85.31
2017-10-19T07:29:15.656Z,86.27
2017-10-19T07:31:43.184Z,87.02
2017-10-19T07:34:10.704Z,87.13
2017-10-19T07:36:38.227Z,86.01
2017-10-19T07:39:05.760Z,84.78
2017-10-19T07:41:33.312Z,85.43
2017-10-19T07:44:00.852Z,84.13
2017-10-19T07:46:35.460Z,85.26
2017-10-19T07:49:02.988Z,87.64
2017-10-19T07:51:30.533Z,88.00
2017-10-19T07:53:58.034Z,87.61
2017-10-19T07:56:25.565Z,85.86
2017-10-19T07:58:53.075Z,87.19
2017-10-19T08:01:20.605Z,86.66
2017-10-19T08:06:44.329Z,84.32
2017-10-19T08:09:11.847Z,84.32
2017-10-19T08:11:39.371Z,83.65
2017-10-19T08:14:07.023Z,83.50
2017-10-19T08:16:34.556Z,83.37
2017-10-19T08:19:02.095Z,82.22
2017-10-19T08:21:29.622Z,82.41
2017-10-19T08:23:57.244Z,80.16
2017-10-19T08:26:24.798Z,81.84
2017-10-19T08:28:52.325Z,78.65
2017-10-19T08:42:52.667Z,75.88
2017-10-19T08:45:20.213Z,72.98
2017-10-19T08:47:47.724Z,71.31
2017-10-19T08:50:15.233Z,70.99
2017-10-19T08:52:42.747Z,64.00
2017-10-19T08:55:10.282Z,64.56
2017-10-19T09:00:34.031Z,62.90
2017-10-19T09:03:01.595Z,62.80
2017-10-19T09:05:29.119Z,62.66
2017-10-19T09:07:56.683Z,62.63
2017-10-19T09:10:39.080Z,67.87
2017-10-19T09:13:06.620Z,64.97
2017-10-19T09:15:34.163Z,68.85
2017-10-19T09:18:01.689Z,68.33
2017-10-19T09:20:29.245Z,67.90
2017-10-19T09:22:56.776Z,68.45
2017-10-19T09:25:24.304Z,68.05
2017-10-19T09:30:48.055Z,66.55
2017-10-19T09:33:15.567Z,65.76
2017-10-19T09:35:43.084Z,64.97
2017-10-19T09:38:10.592Z,68.25
2017-10-19T09:40:38.124Z,67.77
2017-10-19T09:43:05.662Z,66.48
2017-10-19T09:45:33.176Z,65.80
2017-10-19T09:48:00.707Z,66.00
2017-10-19T09:50:28.219Z,67.75
2017-10-19T09:53:02.494Z,68.05
2017-10-19T09:55:32.937Z,67.55
2017-10-19T09:58:00.462Z,68.78
2017-10-19T10:00:27.976Z,68.69
2017-10-19T10:02:55.495Z,67.60
2017-10-19T10:05:23.023Z,66.90
2017-10-19T10:07:50.530Z,66.50
2017-10-19T10:10:18.053Z,65.54
2017-10-19T10:12:45.575Z,64.85
2017-10-19T10:15:13.120Z,62.97
2017-10-19T10:17:40.665Z,61.95
2017-10-19T10:20:08.219Z,61.28
2017-10-19T10:22:35.737Z,61.90
2017-10-19T10:25:03.262Z,60.76
2017-10-19T10:27:33.155Z,59.50
2017-10-19T10:30:00.684Z,60.31
2017-10-19T10:32:28.227Z,54.78
2017-10-19T10:34:55.744Z,50.04
2017-10-19T10:37:23.283Z,53.58
2017-10-19T10:39:50.823Z,55.26
2017-10-19T10:42:18.340Z,55.09
2017-10-19T10:44:47.540Z,55.37
2017-10-19T10:47:15.057Z,58.08
2017-10-19T10:49:42.576Z,55.56
2017-10-19T10:52:10.093Z,50.76
2017-10-19T10:54:37.617Z,50.59
2017-10-19T10:57:05.133Z,44.89
2017-10-19T10:59:32.676Z,45.69
2017-10-19T11:02:00.201Z,43.71
2017-10-19T11:16:31.025Z,49.84
2017-10-19T11:18:58.539Z,50.92
2017-10-19T11:21:28.543Z,49.82
2017-10-19T11:23:56.071Z,50.85
2017-10-19T11:26:23.599Z,52.11
2017-10-19T11:28:51.119Z,54.33
2017-10-19T11:31:18.636Z,52.16
2017-10-19T11:33:52.976Z,50.93
2017-10-19T11:36:20.501Z,51.13
2017-10-19T11:38:48.029Z,48.43
2017-10-19T11:41:15.547Z,45.11
2017-10-19T11:43:43.689Z,41.35
2017-10-19T11:46:11.216Z,37.50
2017-10-19T11:48:38.733Z,36.67
2017-10-19T11:51:06.276Z,35.71
2017-10-19T11:53:33.811Z,34.82
2017-10-19T11:56:01.325Z,36.97
2017-10-19T11:58:28.895Z,42.95
2017-10-19T12:00:56.423Z,43.29
2017-10-19T12:03:23.938Z,44.64
2017-10-19T12:05:51.454Z,45.30
2017-10-19T12:08:18.989Z,48.59
2017-10-19T12:10:46.499Z,45.24
2017-10-19T12:13:16.107Z,43.89
2017-10-19T12:15:43.630Z,39.07
2017-10-19T12:18:11.148Z,40.78
2017-10-19T12:23:34.893Z,37.95
2017-10-19T12:26:02.422Z,36.48
2017-10-19T12:28:30.032Z,33.02
2017-10-19T12:30:57.600Z,29.89
2017-10-19T12:33:25.120Z,30.60
2017-10-19T12:47:25.327Z,25.22
2017-10-19T12:49:52.842Z,24.41
2017-10-19T12:52:20.367Z,23.91
2017-10-19T12:54:47.904Z,23.82
2017-10-19T12:57:15.420Z,24.17
2017-10-19T12:59:42.953Z,24.79
2017-10-19T13:02:10.484Z,27.91
2017-10-19T13:04:38.019Z,24.21
2017-10-19T13:07:08.811Z,23.71
2017-10-19T13:09:36.322Z,23.69
2017-10-19T13:12:03.831Z,25.31
2017-10-19T13:14:31.377Z,25.42
2017-10-19T13:16:58.886Z,25.60
2017-10-19T13:19:35.440Z,26.27
2017-10-19T13:22:03.004Z,27.20
2017-10-19T13:24:30.509Z,27.32
2017-10-19T13:26:58.031Z,26.71
2017-10-19T13:29:25.586Z,26.24
2017-10-19T13:31:53.094Z,27.63
2017-10-19T13:34:20.616Z,30.89
2017-10-19T13:36:48.218Z,30.31
2017-10-19T13:39:15.745Z,31.30
2017-10-19T13:41:43.270Z,33.46
2017-10-19T13:44:10.813Z,34.67
2017-10-19T13:46:38.344Z,34.01
2017-10-19T13:49:05.863Z,33.99
2017-10-19T13:51:33.390Z,37.32
2017-10-19T14:05:41.215Z,29.92
2017-10-19T14:08:22.094Z,28.58
2017-10-19T14:10:49.604Z,28.64
2017-10-19T14:13:30.660Z,30.61
2017-10-19T14:15:58.191Z,31.44
2017-10-19T14:18:25.735Z,33.15
2017-10-19T14:20:53.260Z,34.04
2017-10-19T14:23:20.769Z,35.19
2017-10-19T14:25:48.288Z,35.86
2017-10-19T14:28:15.915Z,38.03
2017-10-19T14:30:43.476Z,40.09
2017-10-19T14:33:11.000Z,40.90
2017-10-19T14:35:38.515Z,41.19
2017-10-19T14:38:06.079Z,41.66
2017-10-19T14:40:33.595Z,45.41
2017-10-19T14:43:01.116Z,52.60
2017-10-19T14:45:43.524Z,53.39
2017-10-19T14:48:11.506Z,54.89
2017-10-19T14:50:39.017Z,51.13
2017-10-19T14:53:06.561Z,55.82
2017-10-19T14:55:34.087Z,54.82
2017-10-19T14:58:01.601Z,56.92
2017-10-19T15:00:29.133Z,56.94
2017-10-19T15:02:56.675Z,58.08
2017-10-19T15:05:24.201Z,59.12
2017-10-19T15:07:51.770Z,58.98
2017-10-19T15:10:26.365Z,60.02
2017-10-19T15:12:53.904Z,58.75
2017-10-19T15:15:21.409Z,61.08
2017-10-19T15:17:53.347Z,60.71
2017-10-19T15:20:20.855Z,61.19
2017-10-19T15:22:48.392Z,62.91
2017-10-19T15:25:15.915Z,63.11
2017-10-19T15:27:43.460Z,61.42
2017-10-19T15:30:10.984Z,64.10
2017-10-19T15:32:38.511Z,64.24
2017-10-19T15:35:06.034Z,65.48
2017-10-19T15:37:33.570Z,68.08
2017-10-19T15:40:01.104Z,68.21
2017-10-19T15:42:28.617Z,68.06
2017-10-19T15:44:56.123Z,67.48
2017-10-19T15:47:23.704Z,70.23
2017-10-19T15:49:51.245Z,72.41
2017-10-19T15:52:18.757Z,73.52
2017-10-19T15:54:46.272Z,74.61
2017-10-19T15:57:13.820Z,73.43
2017-10-19T15:59:41.454Z,71.90
2017-10-19T16:02:09.022Z,72.36
2017-10-19T16:16:18.679Z,77.05
2017-10-19T16:21:42.536Z,79.07
2017-10-19T16:24:10.182Z,80.10
2017-10-19T16:26:37.712Z,80.79
2017-10-19T16:29:05.217Z,81.13
2017-10-19T16:31:32.772Z,81.54
2017-10-19T16:34:00.283Z,82.49
2017-10-19T16:36:27.820Z,82.73
2017-10-19T16:38:56.061Z,82.22
2017-10-19T16:41:23.605Z,82.60
2017-10-19T16:43:51.137Z,82.81
2017-10-19T16:46:18.660Z,83.26
2017-10-19T16:48:46.216Z,84.73
2017-10-19T16:51:13.756Z,84.78
2017-10-19T16:53:41.287Z,85.46
2017-10-19T17:07:58.007Z,86.65
2017-10-19T17:10:25.700Z,87.58
2017-10-19T17:12:53.286Z,87.82
2017-10-19T17:15:20.878Z,87.98
2017-10-19T17:17:48.667Z,88.03
2017-10-19T17:20:16.392Z,89.10
2017-10-19T17:22:44.192Z,88.94
2017-10-19T17:25:12.061Z,90.63
2017-10-19T17:27:40.032Z,90.57
2017-10-19T17:30:07.865Z,89.96
2017-10-19T17:32:35.674Z,90.46
2017-10-19T17:35:03.332Z,90.75
2017-10-19T17:37:30.982Z,91.21
2017-10-19T17:40:01.265Z,91.70
2017-10-19T17:42:28.819Z,91.69
2017-10-19T17:44:56.398Z,91.38
2017-10-19T17:47:24.214Z,91.64
2017-10-19T17:49:52.039Z,90.85
2017-10-19T17:52:19.917Z,90.55
2017-10-19T17:54:47.785Z,88.89
2017-10-19T17:57:15.651Z,88.97
2017-10-19T17:59:43.505Z,89.07
2017-10-19T18:02:14.661Z,89.97
2017-10-19T18:04:42.428Z,90.23
2017-10-19T18:07:10.186Z,90.15
2017-10-19T18:09:37.847Z,91.09
2017-10-19T18:12:05.429Z,90.75
2017-10-19T18:14:32.998Z,90.39
2017-10-19T18:17:00.835Z,89.42
2017-10-19T18:31:01.106Z,94.91
2017-10-19T18:33:28.713Z,95.56
2017-10-19T18:35:56.554Z,96.06
2017-10-19T18:38:24.318Z,95.49
2017-10-19T18:40:52.165Z,93.81
2017-10-19T18:43:20.163Z,93.13
2017-10-19T18:45:48.017Z,93.00
2017-10-19T18:48:15.958Z,91.28
2017-10-19T18:50:43.853Z,92.35
2017-10-19T18:53:11.924Z,93.02
2017-10-19T18:55:39.994Z,94.21
2017-10-19T18:58:07.860Z,94.40
2017-10-19T19:00:35.832Z,94.69
2017-10-19T19:03:03.798Z,94.38
2017-10-19T19:05:31.868Z,93.65
2017-10-19T19:07:59.835Z,93.21
2017-10-19T19:10:27.906Z,93.84
2017-10-19T19:13:03.349Z,93.98
2017-10-19T19:15:31.329Z,94.53
2017-10-19T19:17:59.289Z,94.54
2017-10-19T19:20:27.256Z,94.18
2017-10-19T19:22:55.222Z,94.74
2017-10-19T19:25:23.302Z,94.73
2017-10-19T19:27:51.160Z,95.17
2017-10-19T19:30:19.241Z,95.25
2017-10-19T19:32:47.204Z,93.86
2017-10-19T19:35:15.099Z,94.44
2017-10-19T19:37:44.061Z,94.53
2017-10-19T19:40:12.133Z,93.13
2017-10-19T19:42:40.200Z,93.74
2017-10-19T19:45:11.139Z,94.44
2017-10-19T19:47:39.005Z,95.15
2017-10-19T19:50:06.872Z,95.74
2017-10-19T19:52:34.843Z,96.08
2017-10-19T19:55:02.709Z,96.29
2017-10-19T19:57:30.785Z,96.11
2017-10-19T19:59:58.644Z,95.15
2017-10-19T20:02:26.510Z,95.24
2017-10-19T20:16:27.112Z,95.99
2017-10-19T20:19:01.233Z,96.08
2017-10-19T20:21:29.089Z,95.72
2017-10-19T20:37:18.026Z,95.29
2017-10-19T20:39:47.668Z,94.97
2017-10-19T20:45:11.415Z,95.03
2017-10-19T20:47:38.946Z,95.28
2017-10-19T20:50:21.338Z,94.86
2017-10-19T20:52:48.880Z,94.41
2017-10-19T20:55:16.411Z,94.86
2017-10-19T20:57:43.919Z,95.62
2017-10-19T21:00:11.429Z,95.78
2017-10-19T21:02:38.973Z,96.42
2017-10-19T21:05:06.536Z,96.71
2017-10-19T21:19:15.840Z,96.71
2017-10-19T21:21:43.392Z,96.35
2017-10-19T21:24:10.918Z,96.11
2017-10-19T21:26:38.424Z,96.55
2017-10-19T21:29:05.939Z,96.86
2017-10-19T21:31:33.472Z,96.59
2017-10-19T21:34:01.007Z,95.73
2017-10-19T21:36:28.541Z,94.87
2017-10-19T21:38:56.062Z,94.18
2017-10-19T21:41:23.582Z,94.89
2017-10-19T21:43:51.130Z,96.00
2017-10-19T21:46:18.640Z,95.72
2017-10-19T21:48:46.176Z,96.39
2017-10-19T21:51:13.687Z,96.43
2017-10-19T21:53:41.209Z,97.03
2017-10-19T21:56:08.727Z,97.18
2017-10-19T21:58:37.107Z,97.45
2017-10-19T22:01:04.614Z,97.71
2017-10-19T22:03:32.143Z,97.37
2017-10-19T22:05:59.655Z,97.16
2017-10-19T22:08:27.177Z,97.10
2017-10-19T22:10:54.714Z,97.19
2017-10-19T22:13:22.246Z,97.17
2017-10-19T22:15:49.788Z,96.15
2017-10-19T22:18:17.315Z,96.70
2017-10-19T22:20:44.842Z,96.79
2017-10-19T22:23:12.355Z,96.39
2017-10-19T22:25:53.218Z,96.28
2017-10-19T22:45:40.070Z,95.39
2017-10-19T22:48:07.592Z,95.54
2017-10-19T22:50:35.108Z,94.00
2017-10-19T22:53:02.705Z,94.54
2017-10-19T22:55:30.239Z,96.21
2017-10-19T22:57:57.751Z,96.72
2017-10-19T23:00:25.291Z,96.12
2017-10-19T23:02:57.513Z,95.23
2017-10-19T23:05:25.021Z,95.49
2017-10-19T23:07:52.538Z,96.48
2017-10-19T23:10:20.058Z,96.34
2017-10-19T23:12:50.349Z,96.29
2017-10-19T23:15:17.872Z,95.55
2017-10-19T23:17:45.404Z,95.35
2017-10-19T23:20:12.963Z,94.76
2017-10-19T23:22:40.517Z,93.87
2017-10-19T23:25:09.518Z,93.62
2017-10-19T23:27:37.086Z,94.25
2017-10-19T23:30:04.604Z,94.06
2017-10-19T23:32:32.129Z,94.44
2017-10-19T23:34:59.649Z,94.26
2017-10-19T23:37:27.204Z,93.80
2017-10-19T23:39:54.715Z,95.29
2017-10-19T23:42:22.237Z,95.42
2017-10-19T23:44:49.752Z,95.24
2017-10-19T23:58:51.197Z,95.54
